Time;durP1;ratioP1;P1;durP2;ratioP2;P2;SDS_P1;SDS_P2;PMS_P1;PMS_P2;Temp;Humidity;BMP_temperature;BMP_pressure;BME280_temperature;BME280_humidity;BME280_pressure;Samples;Min_cycle;Max_cycle;Signal;HPM_P1;HPM_P2
2024/02/18 00:00:34;;;;;;;37.85;18.83;;;10.40;89.10;;;;;;5053772;28;20414;-76
2024/02/18 00:03:00;;;;;;;41.70;19.60;;;10.40;89.10;;;;;;5054114;28;20482;-75
2024/02/18 00:05:26;;;;;;;42.60;21.85;;;10.50;87.90;;;;;;5054597;28;20912;-77
2024/02/18 00:07:51;;;;;;;37.70;19.50;;;10.40;88.80;;;;;;5054244;28;20545;-77
2024/02/18 00:10:17;;;;;;;41.28;20.15;;;10.50;88.90;;;;;;5060897;28;20389;-76
2024/02/18 00:12:42;;;;;;;44.10;20.43;;;10.50;88.80;;;;;;5058297;28;20407;-76
2024/02/18 00:15:09;;;;;;;31.70;19.30;;;10.50;87.20;;;;;;5058238;28;20792;-76
2024/02/18 00:17:34;;;;;;;32.28;17.63;;;10.50;87.60;;;;;;5057828;28;20838;-75
2024/02/18 00:20:00;;;;;;;34.42;19.17;;;10.50;87.10;;;;;;5057635;28;20474;-77
2024/02/18 00:22:25;;;;;;;38.70;18.58;;;10.50;87.50;;;;;;5075533;28;20412;-77
2024/02/18 00:24:51;;;;;;;33.80;17.90;;;10.50;87.00;;;;;;5062503;28;20396;-74
2024/02/18 00:27:17;;;;;;;40.03;18.95;;;10.40;86.90;;;;;;5068850;28;20413;-76
2024/02/18 00:29:42;;;;;;;37.10;17.80;;;10.50;85.90;;;;;;5066596;28;20390;-76
2024/02/18 00:32:08;;;;;;;36.10;17.60;;;10.50;85.20;;;;;;5064242;28;20397;-76
2024/02/18 00:34:33;;;;;;;29.30;16.80;;;10.50;86.40;;;;;;5061034;28;20413;-76
2024/02/18 00:36:59;;;;;;;34.07;17.53;;;10.50;84.40;;;;;;5059877;28;20471;-75
2024/02/18 00:39:25;;;;;;;33.03;16.88;;;10.40;85.20;;;;;;5066822;28;20397;-77
2024/02/18 00:41:50;;;;;;;31.75;16.15;;;10.40;84.70;;;;;;5065815;28;20417;-76
2024/02/18 00:44:17;;;;;;;34.72;17.40;;;10.40;84.70;;;;;;5061827;28;20884;-76
2024/02/18 00:46:42;;;;;;;35.37;18.30;;;10.50;84.60;;;;;;5054875;28;20385;-76
2024/02/18 00:49:08;;;;;;;33.60;18.20;;;10.50;84.50;;;;;;5055134;28;20385;-79
2024/02/18 00:51:33;;;;;;;36.07;17.40;;;10.60;84.30;;;;;;5054787;28;20400;-76
2024/02/18 00:53:59;;;;;;;35.17;17.47;;;10.50;83.70;;;;;;5054889;28;20492;-76
2024/02/18 00:56:25;;;;;;;30.80;16.37;;;10.50;83.90;;;;;;5053799;28;20385;-75
2024/02/18 00:58:52;;;;;;;26.40;16.15;;;10.50;83.50;;;;;;5053859;28;20385;-77
2024/02/18 01:01:18;;;;;;;29.20;17.13;;;10.40;83.90;;;;;;5053880;28;20377;-76
2024/02/18 01:03:45;;;;;;;28.85;16.10;;;10.40;84.80;;;;;;5054052;28;20393;-76
2024/02/18 01:06:11;;;;;;;27.13;14.73;;;10.50;84.20;;;;;;5054417;28;20389;-77
2024/02/18 01:08:37;;;;;;;29.95;15.90;;;10.40;84.30;;;;;;5054109;28;20385;-77
2024/02/18 01:11:03;;;;;;;34.97;17.13;;;10.50;84.20;;;;;;5053292;28;20443;-77
2024/02/18 01:13:28;;;;;;;32.22;15.82;;;10.50;84.10;;;;;;5053464;28;20486;-78
2024/02/18 01:15:54;;;;;;;26.52;15.95;;;10.40;84.20;;;;;;5054009;28;20748;-76
2024/02/18 01:18:19;;;;;;;31.90;16.83;;;10.40;84.40;;;;;;5053567;28;20404;-76
2024/02/18 01:20:45;;;;;;;28.03;15.97;;;10.40;84.70;;;;;;5053651;28;20393;-77
2024/02/18 01:23:11;;;;;;;29.40;16.33;;;10.50;83.40;;;;;;5053446;28;20864;-75
2024/02/18 01:25:37;;;;;;;29.10;14.77;;;10.50;84.10;;;;;;5053195;28;20382;-76
2024/02/18 01:28:03;;;;;;;30.55;17.10;;;10.50;83.00;;;;;;5053092;28;20476;-75
2024/02/18 01:30:29;;;;;;;30.48;16.65;;;10.60;83.10;;;;;;5052692;28;20494;-75
2024/02/18 01:32:55;;;;;;;27.38;15.40;;;10.50;82.60;;;;;;5053490;28;20386;-76
2024/02/18 01:35:21;;;;;;;29.33;16.10;;;10.60;82.10;;;;;;5052068;28;20404;-77
2024/02/18 01:37:47;;;;;;;30.73;16.90;;;10.50;82.60;;;;;;5052078;28;20389;-76
2024/02/18 01:40:13;;;;;;;30.97;15.73;;;10.50;82.50;;;;;;5054228;28;20385;-75
2024/02/18 01:42:39;;;;;;;35.85;16.38;;;10.50;82.30;;;;;;5054429;28;20385;-77
2024/02/18 01:45:11;;;;;;;32.00;17.65;;;10.40;83.30;;;;;;5054284;28;20414;-76
2024/02/18 01:47:38;;;;;;;34.50;18.30;;;10.50;83.60;;;;;;5053898;28;20392;-78
2024/02/18 01:50:05;;;;;;;33.75;16.67;;;10.40;84.10;;;;;;5053622;28;20390;-77
2024/02/18 01:52:31;;;;;;;30.88;16.90;;;10.40;83.60;;;;;;5054183;28;20923;-77
2024/02/18 01:54:57;;;;;;;35.40;16.43;;;10.30;85.00;;;;;;5053719;28;20465;-76
2024/02/18 01:57:27;;;;;;;32.13;16.88;;;10.30;84.90;;;;;;5053961;28;20459;-77
2024/02/18 01:59:55;;;;;;;32.08;16.10;;;10.30;84.50;;;;;;5053024;28;20377;-75
2024/02/18 02:02:21;;;;;;;32.70;16.07;;;10.20;84.70;;;;;;5052482;28;20437;-75
2024/02/18 02:04:47;;;;;;;31.20;17.27;;;10.10;85.50;;;;;;5053979;28;20404;-75
2024/02/18 02:07:12;;;;;;;29.67;16.33;;;10.10;86.90;;;;;;5052313;28;20386;-77
2024/02/18 02:09:39;;;;;;;33.08;17.00;;;10.10;86.20;;;;;;5053397;28;20385;-77
2024/02/18 02:12:05;;;;;;;28.42;16.83;;;10.00;86.80;;;;;;5053086;28;20471;-75
2024/02/18 02:14:31;;;;;;;28.83;17.02;;;10.00;86.40;;;;;;5052940;28;20401;-77
2024/02/18 02:16:56;;;;;;;29.15;16.60;;;10.10;86.70;;;;;;5053825;28;20385;-78
2024/02/18 02:19:22;;;;;;;28.73;16.20;;;10.10;85.40;;;;;;5053007;28;20382;-78
2024/02/18 02:21:48;;;;;;;31.75;17.02;;;10.10;84.90;;;;;;5062224;28;20401;-78
2024/02/18 02:24:14;;;;;;;34.73;17.40;;;10.10;84.90;;;;;;5068809;28;20400;-79
2024/02/18 02:26:42;;;;;;;25.93;15.80;;;10.20;85.60;;;;;;5062557;28;20424;-78
2024/02/18 02:29:12;;;;;;;30.80;17.65;;;10.20;84.40;;;;;;5063068;28;20433;-80
2024/02/18 02:31:41;;;;;;;33.95;17.42;;;10.20;85.50;;;;;;5061596;28;20758;-79
2024/02/18 02:34:06;;;;;;;29.65;16.15;;;10.20;84.80;;;;;;5063107;28;20408;-80
2024/02/18 02:36:32;;;;;;;30.37;16.90;;;10.30;84.10;;;;;;5061741;28;20385;-78
2024/02/18 02:38:58;;;;;;;28.27;15.73;;;10.30;83.40;;;;;;5062394;28;20384;-79
2024/02/18 02:41:24;;;;;;;29.00;15.60;;;10.30;82.10;;;;;;5062121;28;20473;-79
2024/02/18 02:43:50;;;;;;;28.75;14.88;;;10.30;82.40;;;;;;5061956;28;20396;-79
2024/02/18 02:46:15;;;;;;;32.25;14.60;;;10.30;82.30;;;;;;5061052;28;20398;-78
2024/02/18 02:48:41;;;;;;;24.45;14.70;;;10.30;81.90;;;;;;5061939;28;20443;-80
2024/02/18 02:51:07;;;;;;;27.75;14.95;;;10.20;82.80;;;;;;5061789;28;20415;-77
2024/02/18 02:53:33;;;;;;;27.55;15.35;;;10.20;82.60;;;;;;5061931;28;20468;-78
2024/02/18 02:56:00;;;;;;;29.30;15.48;;;10.20;82.80;;;;;;5060638;28;20416;-78
2024/02/18 02:58:25;;;;;;;28.38;14.98;;;10.20;82.40;;;;;;5060222;28;20389;-78
2024/02/18 03:00:51;;;;;;;28.67;16.50;;;10.30;82.80;;;;;;5060523;28;20432;-80
2024/02/18 03:03:17;;;;;;;26.30;15.03;;;10.30;81.90;;;;;;5062841;28;20405;-79
2024/02/18 03:05:42;;;;;;;28.47;15.43;;;10.30;80.70;;;;;;5079174;28;20400;-77
2024/02/18 03:08:09;;;;;;;27.97;15.50;;;10.30;79.70;;;;;;5063526;28;20443;-79
2024/02/18 03:10:38;;;;;;;28.75;15.05;;;10.40;78.70;;;;;;5059624;28;20412;-78
2024/02/18 03:13:04;;;;;;;23.85;14.10;;;10.40;78.70;;;;;;5058861;28;20381;-80
2024/02/18 03:15:30;;;;;;;29.90;14.60;;;10.40;78.20;;;;;;5070361;28;20413;-75
2024/02/18 03:17:56;;;;;;;26.48;14.93;;;10.40;77.20;;;;;;5070820;28;20404;-77
2024/02/18 03:20:22;;;;;;;27.65;14.90;;;10.40;77.70;;;;;;5063943;28;20395;-77
2024/02/18 03:22:49;;;;;;;23.42;14.10;;;10.30;77.30;;;;;;5061226;28;20421;-80
2024/02/18 03:25:15;;;;;;;23.83;14.65;;;10.30;78.90;;;;;;5058317;28;20382;-78
2024/02/18 03:27:41;;;;;;;26.70;14.63;;;10.20;79.70;;;;;;5057962;28;20442;-80
2024/02/18 03:30:07;;;;;;;24.67;15.10;;;10.20;79.50;;;;;;5057217;28;20405;-78
2024/02/18 03:32:36;;;;;;;21.90;14.50;;;10.20;79.50;;;;;;5072227;28;20413;-78
2024/02/18 03:35:05;;;;;;;27.00;14.63;;;10.10;80.20;;;;;;5058297;28;20755;-78
2024/02/18 03:37:32;;;;;;;31.40;14.60;;;10.20;80.70;;;;;;5059454;28;20389;-77
2024/02/18 03:39:57;;;;;;;23.15;14.10;;;10.20;80.50;;;;;;5067887;28;20400;-79
2024/02/18 03:42:23;;;;;;;27.87;13.80;;;10.30;78.30;;;;;;5067202;28;20405;-76
2024/02/18 03:44:49;;;;;;;25.17;14.10;;;10.20;77.90;;;;;;5065672;28;20400;-79
2024/02/18 03:47:15;;;;;;;26.70;14.90;;;10.20;77.10;;;;;;5068806;28;20869;-79
2024/02/18 03:49:40;;;;;;;25.75;15.30;;;10.20;78.20;;;;;;5059976;28;20820;-79
2024/02/18 03:52:06;;;;;;;28.58;14.65;;;10.20;77.90;;;;;;5059737;28;20385;-80
2024/02/18 03:54:32;;;;;;;26.38;13.48;;;10.10;78.10;;;;;;5058638;28;20463;-79
2024/02/18 03:56:58;;;;;;;26.20;14.60;;;10.10;78.20;;;;;;5060676;28;20401;-77
2024/02/18 03:59:25;;;;;;;24.65;14.25;;;10.00;77.90;;;;;;5064364;28;20860;-79
2024/02/18 04:01:51;;;;;;;25.27;14.10;;;10.00;79.50;;;;;;5063610;28;20386;-78
2024/02/18 04:04:17;;;;;;;25.90;14.83;;;10.00;79.30;;;;;;5075259;28;20452;-77
2024/02/18 04:06:43;;;;;;;27.63;13.90;;;10.00;79.80;;;;;;5074684;28;20456;-75
2024/02/18 04:09:11;;;;;;;22.42;13.30;;;10.00;78.50;;;;;;5077436;28;20385;-77
2024/02/18 04:11:37;;;;;;;20.55;12.32;;;10.00;76.20;;;;;;5074748;28;20362;-76
2024/02/18 04:14:03;;;;;;;20.70;11.90;;;10.10;73.60;;;;;;5063501;28;20714;-77
2024/02/18 04:16:29;;;;;;;24.35;11.95;;;10.00;73.40;;;;;;5064121;28;20412;-79
2024/02/18 04:18:54;;;;;;;19.73;11.10;;;10.10;69.30;;;;;;5067632;28;20394;-77
2024/02/18 04:21:20;;;;;;;19.97;10.87;;;10.00;67.80;;;;;;5075274;28;20471;-77
2024/02/18 04:23:45;;;;;;;18.93;10.10;;;10.00;68.40;;;;;;5075288;28;20405;-75
2024/02/18 04:26:11;;;;;;;17.50;10.20;;;10.00;65.20;;;;;;5062312;28;20435;-79
2024/02/18 04:28:36;;;;;;;19.70;9.57;;;10.00;65.60;;;;;;5062009;28;20393;-78
2024/02/18 04:31:03;;;;;;;18.15;9.73;;;10.00;64.50;;;;;;5061377;28;20385;-76
2024/02/18 04:33:29;;;;;;;18.35;10.07;;;10.00;65.80;;;;;;5060127;28;20474;-78
2024/02/18 04:35:54;;;;;;;20.48;11.27;;;10.00;66.30;;;;;;5060809;28;20930;-77
2024/02/18 04:38:20;;;;;;;23.77;12.48;;;10.00;68.30;;;;;;5061013;28;20890;-79
2024/02/18 04:40:46;;;;;;;24.15;12.80;;;10.10;70.10;;;;;;5061981;28;20384;-79
2024/02/18 04:43:11;;;;;;;18.63;11.55;;;10.00;71.80;;;;;;5064373;28;20385;-79
2024/02/18 04:45:37;;;;;;;25.90;11.18;;;10.10;72.90;;;;;;5063373;28;20432;-79
2024/02/18 04:48:04;;;;;;;24.13;12.40;;;10.00;73.20;;;;;;5062551;28;20468;-77
2024/02/18 04:50:29;;;;;;;24.25;12.45;;;10.00;73.60;;;;;;5065497;28;20384;-78
2024/02/18 04:52:55;;;;;;;24.77;12.73;;;9.90;74.30;;;;;;5066035;28;20477;-77
2024/02/18 04:55:20;;;;;;;21.90;11.17;;;9.90;74.10;;;;;;5065048;28;20405;-76
2024/02/18 04:57:46;;;;;;;21.77;11.77;;;9.90;74.90;;;;;;5063198;28;20393;-78
2024/02/18 05:00:12;;;;;;;23.07;11.90;;;9.80;74.30;;;;;;5084553;28;20428;-79
2024/02/18 05:02:38;;;;;;;18.92;11.40;;;9.80;73.70;;;;;;5072127;28;20432;-76
2024/02/18 05:05:04;;;;;;;17.60;9.77;;;9.90;72.70;;;;;;5074555;28;20392;-76
2024/02/18 05:07:30;;;;;;;19.63;10.53;;;9.90;71.40;;;;;;5074230;28;20449;-78
2024/02/18 05:09:57;;;;;;;21.45;10.48;;;9.80;70.70;;;;;;5062346;28;20385;-77
2024/02/18 05:12:23;;;;;;;18.95;9.95;;;9.90;72.40;;;;;;5058315;28;20380;-77
2024/02/18 05:14:48;;;;;;;16.40;10.10;;;9.90;71.20;;;;;;5057507;28;20493;-78
2024/02/18 05:17:14;;;;;;;14.98;9.40;;;10.00;69.80;;;;;;5061397;28;20411;-78
2024/02/18 05:19:40;;;;;;;20.45;8.77;;;9.90;69.30;;;;;;5058105;28;20382;-79
2024/02/18 05:22:05;;;;;;;16.92;8.40;;;10.00;66.20;;;;;;5058816;28;20450;-77
2024/02/18 05:24:34;;;;;;;12.70;7.78;;;10.00;65.00;;;;;;5058191;28;20446;-76
2024/02/18 05:27:00;;;;;;;16.50;7.15;;;10.10;64.20;;;;;;5059940;28;20382;-77
2024/02/18 05:29:26;;;;;;;13.07;7.07;;;10.10;59.70;;;;;;5063542;28;20384;-78
2024/02/18 05:31:51;;;;;;;19.50;7.80;;;10.10;58.30;;;;;;5060663;28;20433;-77
2024/02/18 05:34:17;;;;;;;12.43;6.73;;;10.20;57.20;;;;;;5062025;28;20405;-77
2024/02/18 05:36:43;;;;;;;12.40;6.28;;;10.10;57.90;;;;;;5059916;28;20455;-77
2024/02/18 05:39:12;;;;;;;14.23;7.17;;;10.10;57.10;;;;;;5063091;28;20378;-79
2024/02/18 05:41:38;;;;;;;14.68;7.72;;;10.10;56.90;;;;;;5063908;28;20374;-77
2024/02/18 05:44:04;;;;;;;12.95;8.40;;;10.10;57.90;;;;;;5064603;28;20420;-76
2024/02/18 05:46:29;;;;;;;12.90;7.95;;;10.10;58.50;;;;;;5074643;28;20469;-77
2024/02/18 05:48:55;;;;;;;13.82;8.05;;;10.10;58.00;;;;;;5071658;28;20389;-77
2024/02/18 05:51:20;;;;;;;14.43;9.15;;;10.20;57.60;;;;;;5068670;28;20377;-77
2024/02/18 05:53:46;;;;;;;13.57;8.30;;;10.20;58.50;;;;;;5068701;28;20435;-73
2024/02/18 05:56:12;;;;;;;15.30;8.80;;;10.00;59.10;;;;;;5068718;28;20420;-76
2024/02/18 05:58:37;;;;;;;17.37;7.77;;;10.00;58.60;;;;;;5069155;28;20381;-75
2024/02/18 06:01:03;;;;;;;14.63;7.73;;;10.00;58.50;;;;;;5068785;28;20377;-77
2024/02/18 06:03:29;;;;;;;14.88;8.23;;;10.10;58.00;;;;;;5070602;28;20489;-76
2024/02/18 06:05:55;;;;;;;16.58;8.20;;;10.00;57.80;;;;;;5068712;28;20391;-74
2024/02/18 06:08:20;;;;;;;14.05;7.97;;;10.10;56.80;;;;;;5068467;28;20449;-75
2024/02/18 06:10:46;;;;;;;10.63;7.50;;;10.00;57.90;;;;;;5069167;28;20392;-78
2024/02/18 06:13:12;;;;;;;15.32;7.38;;;10.00;56.80;;;;;;5064788;28;20876;-78
2024/02/18 06:15:38;;;;;;;17.08;7.80;;;10.00;57.20;;;;;;5065995;28;20431;-77
2024/02/18 06:18:04;;;;;;;13.57;7.47;;;10.00;56.70;;;;;;5064917;28;20748;-78
2024/02/18 06:20:30;;;;;;;13.70;7.72;;;10.00;56.50;;;;;;5059507;28;20424;-79
2024/02/18 06:22:56;;;;;;;15.77;7.40;;;10.00;55.80;;;;;;5060633;28;20407;-78
2024/02/18 06:25:22;;;;;;;15.02;6.97;;;10.00;54.40;;;;;;5060033;28;20903;-78
2024/02/18 06:27:50;;;;;;;11.73;6.35;;;10.00;55.30;;;;;;5059312;28;21728;-77
2024/02/18 06:30:16;;;;;;;14.50;6.95;;;10.10;54.30;;;;;;5066482;28;20443;-78
2024/02/18 06:32:42;;;;;;;11.40;6.00;;;10.10;52.80;;;;;;5059465;28;20389;-78
2024/02/18 06:35:08;;;;;;;24.17;6.80;;;10.10;52.00;;;;;;5063905;28;20397;-77
2024/02/18 06:37:34;;;;;;;11.07;6.18;;;10.20;51.80;;;;;;5074320;28;20385;-77
2024/02/18 06:39:59;;;;;;;12.02;6.53;;;10.10;51.70;;;;;;5075205;28;20389;-77
2024/02/18 06:42:25;;;;;;;13.93;7.20;;;10.10;53.00;;;;;;5071902;28;20381;-76
2024/02/18 06:44:51;;;;;;;10.07;6.50;;;10.00;54.60;;;;;;5073326;28;20397;-77
2024/02/18 06:47:16;;;;;;;12.27;6.82;;;10.00;55.10;;;;;;5067816;28;20761;-77
2024/02/18 06:49:42;;;;;;;15.43;7.35;;;10.10;55.40;;;;;;5064944;28;20398;-79
2024/02/18 06:52:07;;;;;;;12.60;7.43;;;10.20;56.20;;;;;;5069105;28;20400;-77
2024/02/18 06:54:33;;;;;;;12.20;7.63;;;10.10;56.70;;;;;;5071389;28;20414;-77
2024/02/18 06:56:58;;;;;;;19.57;8.10;;;10.10;57.30;;;;;;5066412;28;20392;-77
2024/02/18 06:59:24;;;;;;;18.30;7.97;;;10.00;56.90;;;;;;5059375;28;20765;-79
2024/02/18 07:01:49;;;;;;;14.37;7.23;;;10.10;56.20;;;;;;5060837;28;20795;-79
2024/02/18 07:04:15;;;;;;;12.93;7.05;;;10.10;56.00;;;;;;5060674;28;20390;-78
2024/02/18 07:06:41;;;;;;;14.27;7.13;;;10.10;55.60;;;;;;5063049;28;20393;-80
2024/02/18 07:09:06;;;;;;;15.80;7.05;;;10.10;56.10;;;;;;5061235;28;20389;-78
2024/02/18 07:11:32;;;;;;;16.48;7.53;;;10.00;55.80;;;;;;5062310;28;20387;-78
2024/02/18 07:13:58;;;;;;;13.00;7.50;;;10.00;57.80;;;;;;5059625;28;20410;-77
2024/02/18 07:16:23;;;;;;;19.70;7.10;;;10.00;57.80;;;;;;5058747;28;20393;-78
2024/02/18 07:18:49;;;;;;;13.80;6.68;;;10.00;58.40;;;;;;5061710;28;20507;-77
2024/02/18 07:21:15;;;;;;;11.73;7.00;;;10.00;58.70;;;;;;5064220;28;20397;-79
2024/02/18 07:23:41;;;;;;;12.90;6.47;;;10.00;58.20;;;;;;5064870;28;20431;-77
2024/02/18 07:26:10;;;;;;;13.85;6.85;;;10.10;56.50;;;;;;5061757;28;20416;-78
2024/02/18 07:28:36;;;;;;;13.88;6.85;;;10.10;57.70;;;;;;5058071;28;20389;-77
2024/02/18 07:31:02;;;;;;;12.70;6.85;;;10.10;58.20;;;;;;5058428;28;20408;-78
2024/02/18 07:33:27;;;;;;;13.02;7.60;;;10.10;58.00;;;;;;5056493;28;20385;-77
2024/02/18 07:35:53;;;;;;;12.45;7.18;;;10.20;56.90;;;;;;5034825;28;20393;-78
2024/02/18 07:38:19;;;;;;;12.05;7.32;;;10.20;56.00;;;;;;5056461;28;20891;-78
2024/02/18 07:40:44;;;;;;;15.00;7.10;;;10.20;55.70;;;;;;5052641;28;20450;-76
2024/02/18 07:43:10;;;;;;;15.65;7.82;;;10.10;56.20;;;;;;5055025;28;20387;-78
2024/02/18 07:45:35;;;;;;;13.65;7.20;;;10.10;56.70;;;;;;5044592;28;20387;-72
2024/02/18 07:48:01;;;;;;;15.80;7.50;;;10.10;57.80;;;;;;5047329;28;20383;-78
2024/02/18 07:50:26;;;;;;;15.13;7.40;;;10.10;57.30;;;;;;5041316;28;20474;-73
2024/02/18 07:52:52;;;;;;;18.33;7.43;;;10.10;57.70;;;;;;5039213;28;20395;-74
2024/02/18 07:55:17;;;;;;;18.77;7.50;;;10.10;57.40;;;;;;5039980;28;20510;-71
2024/02/18 07:57:43;;;;;;;17.25;8.00;;;10.10;57.80;;;;;;5049658;28;20845;-73
2024/02/18 08:00:09;;;;;;;16.77;7.40;;;10.20;56.50;;;;;;5027675;28;20901;-73
2024/02/18 08:02:34;;;;;;;11.90;7.25;;;10.20;57.30;;;;;;5044045;28;20388;-74
2024/02/18 08:05:00;;;;;;;17.05;7.20;;;10.10;57.10;;;;;;5036893;28;20398;-74
2024/02/18 08:07:26;;;;;;;13.52;7.10;;;10.10;56.90;;;;;;5028061;28;20922;-73
2024/02/18 08:09:52;;;;;;;16.20;7.97;;;10.10;56.70;;;;;;5038611;28;20482;-73
2024/02/18 08:12:17;;;;;;;12.83;7.47;;;10.20;58.20;;;;;;5026198;28;20406;-75
2024/02/18 08:14:43;;;;;;;13.97;7.47;;;10.10;58.50;;;;;;5029310;28;20908;-74
2024/02/18 08:17:09;;;;;;;10.13;6.77;;;10.20;58.40;;;;;;5035698;28;20402;-73
2024/02/18 08:19:35;;;;;;;15.93;7.50;;;10.30;58.40;;;;;;5044135;28;20392;-73
2024/02/18 08:22:01;;;;;;;11.73;6.50;;;10.30;56.70;;;;;;5036795;28;20405;-71
2024/02/18 08:24:26;;;;;;;11.15;7.03;;;10.30;56.40;;;;;;5047415;28;21208;-72
2024/02/18 08:26:52;;;;;;;18.35;7.43;;;10.30;56.80;;;;;;5034295;28;20395;-73
2024/02/18 08:29:17;;;;;;;17.90;7.30;;;10.30;56.10;;;;;;5038729;28;20416;-72
2024/02/18 08:31:43;;;;;;;14.07;6.87;;;10.30;55.90;;;;;;5037410;28;20803;-77
2024/02/18 08:34:11;;;;;;;13.57;6.63;;;10.30;54.70;;;;;;5037484;28;20451;-76
2024/02/18 08:36:36;;;;;;;12.50;6.78;;;10.30;53.90;;;;;;5040343;28;20439;-76
2024/02/18 08:39:02;;;;;;;15.97;7.23;;;10.40;53.50;;;;;;5046961;28;20752;-75
2024/02/18 08:41:27;;;;;;;12.23;6.87;;;10.50;53.30;;;;;;5037258;28;20383;-76
2024/02/18 08:43:53;;;;;;;17.10;6.50;;;10.50;52.70;;;;;;5028724;28;20395;-75
2024/02/18 08:46:19;;;;;;;14.37;6.40;;;10.60;52.80;;;;;;5035604;28;20466;-76
2024/02/18 08:48:46;;;;;;;14.80;7.07;;;10.50;51.50;;;;;;5046200;28;20899;-76
2024/02/18 08:51:11;;;;;;;12.35;6.80;;;10.60;53.30;;;;;;5051273;28;20887;-76
2024/02/18 08:53:38;;;;;;;17.63;6.87;;;10.70;52.70;;;;;;5041828;28;20486;-76
2024/02/18 08:56:13;;;;;;;12.20;6.40;;;10.60;51.50;;;;;;5031645;28;20387;-76
2024/02/18 08:58:39;;;;;;;16.13;6.65;;;10.70;51.40;;;;;;5041544;28;20397;-78
2024/02/18 09:01:05;;;;;;;12.45;6.43;;;10.70;51.80;;;;;;5033590;28;20444;-77
2024/02/18 09:03:31;;;;;;;9.57;6.30;;;10.80;51.60;;;;;;5039080;28;20449;-75
2024/02/18 09:05:57;;;;;;;10.15;5.40;;;10.80;51.00;;;;;;5036973;28;20410;-76
2024/02/18 09:08:23;;;;;;;13.30;6.90;;;10.90;49.00;;;;;;5033229;28;20430;-77
2024/02/18 09:10:50;;;;;;;15.32;7.28;;;11.00;49.20;;;;;;5034318;28;20402;-75
2024/02/18 09:13:15;;;;;;;15.68;8.40;;;11.10;48.10;;;;;;5046758;28;20472;-77
2024/02/18 09:15:41;;;;;;;23.10;9.68;;;11.00;48.20;;;;;;5053098;28;20484;-76
2024/02/18 09:18:07;;;;;;;15.30;8.07;;;11.10;48.70;;;;;;5051174;28;20397;-78
2024/02/18 09:20:34;;;;;;;21.23;10.00;;;11.10;48.40;;;;;;5048480;28;21010;-76
2024/02/18 09:22:59;;;;;;;11.23;6.50;;;11.10;46.40;;;;;;5038714;28;20419;-75
2024/02/18 09:25:25;;;;;;;19.67;9.90;;;11.10;46.40;;;;;;5033147;28;20457;-76
2024/02/18 09:27:50;;;;;;;15.43;7.30;;;11.10;48.30;;;;;;5053674;28;20405;-75
2024/02/18 09:30:16;;;;;;;13.90;6.43;;;11.10;45.90;;;;;;5049966;28;20391;-76
2024/02/18 09:32:44;;;;;;;17.42;8.65;;;11.00;45.50;;;;;;5039547;28;20397;-76
2024/02/18 09:35:11;;;;;;;13.73;7.25;;;11.10;46.40;;;;;;5036154;28;20414;-76
2024/02/18 09:37:37;;;;;;;21.83;8.38;;;11.10;46.20;;;;;;5034834;28;20397;-76
2024/02/18 09:40:03;;;;;;;13.45;6.70;;;11.00;47.20;;;;;;5052616;28;20740;-76
2024/02/18 09:42:34;;;;;;;21.13;8.40;;;11.00;46.30;;;;;;5051805;28;20405;-77
2024/02/18 09:45:02;;;;;;;15.00;6.57;;;11.10;45.80;;;;;;5030116;28;20501;-77
2024/02/18 09:47:29;;;;;;;17.65;7.28;;;11.00;46.40;;;;;;5013883;28;20396;-77
2024/02/18 09:49:54;;;;;;;17.85;8.95;;;11.00;46.20;;;;;;5022327;28;20397;-75
2024/02/18 09:52:23;;;;;;;19.70;7.30;;;11.00;47.30;;;;;;5052699;28;20381;-76
2024/02/18 09:54:51;;;;;;;13.77;6.43;;;11.00;46.80;;;;;;5047803;28;20788;-76
2024/02/18 09:57:16;;;;;;;12.35;5.50;;;11.00;45.70;;;;;;5044087;28;20869;-76
2024/02/18 09:59:42;;;;;;;21.57;6.93;;;11.00;45.10;;;;;;5053003;28;20400;-76
2024/02/18 10:02:10;;;;;;;10.70;5.60;;;10.90;45.90;;;;;;5037204;28;20387;-77
2024/02/18 10:04:36;;;;;;;12.80;6.93;;;10.90;45.40;;;;;;5033037;28;20395;-78
2024/02/18 10:07:03;;;;;;;10.68;5.80;;;11.00;45.20;;;;;;5037307;28;20809;-76
2024/02/18 10:09:31;;;;;;;14.20;6.73;;;11.00;45.10;;;;;;5052102;28;20874;-77
2024/02/18 10:11:57;;;;;;;13.15;6.88;;;11.00;45.80;;;;;;5037692;28;20793;-75
2024/02/18 10:14:25;;;;;;;11.50;6.22;;;11.00;46.90;;;;;;5033207;28;20415;-76
2024/02/18 10:16:51;;;;;;;9.63;5.78;;;11.00;46.80;;;;;;5034790;28;20931;-76
2024/02/18 10:19:17;;;;;;;16.53;6.77;;;10.90;47.20;;;;;;5038636;28;20466;-76
2024/02/18 10:21:44;;;;;;;11.03;6.27;;;11.00;47.70;;;;;;5044654;28;20430;-76
2024/02/18 10:24:10;;;;;;;10.47;5.80;;;11.00;47.30;;;;;;5032688;28;20383;-77
2024/02/18 10:26:36;;;;;;;12.48;6.10;;;11.10;47.20;;;;;;5030638;28;20395;-76
2024/02/18 10:29:03;;;;;;;12.63;5.73;;;11.10;47.10;;;;;;5032253;28;20398;-76
2024/02/18 10:31:28;;;;;;;11.87;5.63;;;11.20;46.00;;;;;;5062253;28;20487;-75
2024/02/18 10:33:54;;;;;;;11.83;6.03;;;11.10;46.50;;;;;;5050092;28;20915;-76
2024/02/18 10:36:24;;;;;;;14.57;6.27;;;11.20;47.70;;;;;;5051782;28;20386;-76
2024/02/18 10:38:55;;;;;;;10.80;5.30;;;11.10;47.40;;;;;;5050183;28;20445;-76
2024/02/18 10:41:31;;;;;;;10.73;5.93;;;11.10;48.10;;;;;;5052048;28;20427;-75
2024/02/18 10:44:00;;;;;;;12.88;6.40;;;11.10;47.80;;;;;;5032423;28;20391;-76
2024/02/18 10:46:27;;;;;;;10.07;5.77;;;11.10;49.60;;;;;;5031983;28;20595;-75
2024/02/18 10:49:04;;;;;;;10.48;5.40;;;11.10;48.80;;;;;;5030284;28;20387;-76
2024/02/18 10:51:39;;;;;;;15.63;6.53;;;11.10;49.50;;;;;;5042104;28;20443;-75
2024/02/18 10:54:23;;;;;;;9.85;5.93;;;11.10;50.60;;;;;;5057098;28;20476;-75
2024/02/18 10:56:50;;;;;;;13.90;6.10;;;11.10;50.30;;;;;;5049512;28;20386;-76
2024/02/18 10:59:23;;;;;;;12.35;6.63;;;11.00;51.00;;;;;;5051584;28;20666;-75
2024/02/18 11:02:04;;;;;;;11.98;6.10;;;11.00;51.90;;;;;;5051780;28;20488;-75
2024/02/18 11:04:30;;;;;;;11.85;5.55;;;10.90;53.50;;;;;;5055909;28;20393;-77
2024/02/18 11:06:56;;;;;;;10.50;5.60;;;10.90;52.80;;;;;;5056232;28;20390;-76
2024/02/18 11:09:23;;;;;;;10.82;5.78;;;10.70;54.80;;;;;;5033593;28;20391;-77
2024/02/18 11:11:51;;;;;;;13.13;6.25;;;10.80;55.60;;;;;;5033079;28;20405;-76
2024/02/18 11:14:18;;;;;;;9.45;5.70;;;10.80;56.10;;;;;;5033116;28;20433;-75
2024/02/18 11:16:45;;;;;;;11.60;5.63;;;10.80;56.60;;;;;;5030092;28;20395;-77
2024/02/18 11:19:12;;;;;;;10.13;5.97;;;10.80;56.60;;;;;;5035285;28;20476;-76
2024/02/18 11:21:39;;;;;;;9.48;5.20;;;10.80;58.10;;;;;;5045469;28;20478;-77
2024/02/18 11:24:07;;;;;;;11.55;5.20;;;11.00;56.90;;;;;;5036853;28;20429;-75
2024/02/18 11:26:33;;;;;;;11.10;5.82;;;11.10;56.70;;;;;;5031432;28;20387;-74
2024/02/18 11:29:01;;;;;;;10.50;4.53;;;11.10;56.60;;;;;;5031177;28;20445;-76
2024/02/18 11:31:27;;;;;;;7.77;4.10;;;11.10;55.20;;;;;;5032708;28;20398;-76
2024/02/18 11:33:53;;;;;;;10.88;3.97;;;11.10;54.60;;;;;;5034275;28;20484;-74
2024/02/18 11:36:21;;;;;;;7.30;4.63;;;10.90;56.20;;;;;;5044001;28;20379;-74
2024/02/18 11:38:50;;;;;;;8.90;4.72;;;10.90;57.90;;;;;;5037904;28;20399;-76
2024/02/18 11:41:26;;;;;;;11.43;4.50;;;10.70;59.90;;;;;;5030367;28;20466;-76
2024/02/18 11:43:59;;;;;;;11.70;4.80;;;10.70;60.30;;;;;;5031004;28;20383;-76
2024/02/18 11:46:26;;;;;;;15.98;6.18;;;10.70;61.80;;;;;;5030950;28;20466;-76
2024/02/18 11:48:53;;;;;;;14.52;4.80;;;10.80;61.50;;;;;;5032561;28;20859;-75
2024/02/18 11:51:20;;;;;;;8.88;4.78;;;10.70;59.50;;;;;;5035527;28;20387;-77
2024/02/18 11:53:46;;;;;;;9.00;4.60;;;10.80;59.50;;;;;;5035152;28;20383;-76
2024/02/18 11:56:13;;;;;;;11.95;4.60;;;10.80;59.50;;;;;;5032863;28;20450;-76
2024/02/18 11:58:39;;;;;;;10.10;5.90;;;10.80;59.00;;;;;;5033842;28;20379;-74
2024/02/18 12:01:06;;;;;;;14.52;5.50;;;10.80;61.40;;;;;;5032170;28;20390;-76
2024/02/18 12:03:32;;;;;;;12.40;4.43;;;10.80;62.90;;;;;;5031378;28;20410;-76
2024/02/18 12:06:07;;;;;;;10.25;5.18;;;10.90;60.40;;;;;;5030131;28;20394;-70
2024/02/18 12:08:32;;;;;;;11.20;5.65;;;10.90;59.40;;;;;;5029795;28;20391;-71
2024/02/18 12:11:00;;;;;;;13.10;6.63;;;10.80;59.80;;;;;;5029600;28;20381;-73
2024/02/18 12:13:27;;;;;;;13.27;5.90;;;10.70;61.30;;;;;;5030044;28;20418;-71
2024/02/18 12:15:53;;;;;;;11.60;5.70;;;10.60;60.60;;;;;;5030023;28;20407;-72
2024/02/18 12:18:19;;;;;;;18.33;7.37;;;10.60;60.10;;;;;;5036317;28;20468;-73
2024/02/18 12:20:47;;;;;;;17.57;6.50;;;10.50;62.10;;;;;;4992235;28;1734125;-71
2024/02/18 12:23:14;;;;;;;19.08;7.43;;;10.60;61.00;;;;;;5036917;28;20425;-73
2024/02/18 12:25:40;;;;;;;17.35;7.18;;;10.70;62.40;;;;;;5035529;28;21188;-78
2024/02/18 12:28:09;;;;;;;16.30;7.40;;;10.70;61.70;;;;;;5049337;28;20471;-77